Terminal Aerodrome Forecast
Issued by NWS St Louis, MO

Home | Current Version | Previous Version | Text Only | Print | Product List | Glossary On
Versions: 1 2 3 4 5 6 7 8 9 10 11 12 13 14 15 16 17 18 19 20 21 22 23 24 25
000
FTUS43 KLSX 270854 AAA
TAFSTL
TAF AMD
KSTL 270854Z 2709/2812 17007KT P6SM SCT100 BKN250
     FM271500 20006KT P6SM SCT040 BKN120
     FM280100 VRB04KT P6SM FEW050 BKN250
      TEMPO 2809/2812 5SM BR=

USA.gov is the U.S. government's official web portal to all federal, state and local government web resources and services.